createdAt,value
2019-05-01T00:00:29.022Z,14.10
2019-05-01T00:03:16.343Z,14.10
2019-05-01T00:05:48.948Z,14.20
2019-05-01T00:08:18.151Z,14.10
2019-05-01T00:10:47.342Z,14.20
2019-05-01T00:13:16.706Z,14.20
2019-05-01T00:15:46.407Z,14.20
2019-05-01T00:18:15.546Z,14.20
2019-05-01T00:20:44.639Z,14.20
2019-05-01T00:23:13.750Z,14.10
2019-05-01T00:25:42.844Z,14.10
2019-05-01T00:28:12.464Z,14.00
2019-05-01T00:30:41.891Z,14.10
2019-05-01T00:33:10.993Z,14.00
2019-05-01T00:35:40.083Z,14.10
2019-05-01T00:38:09.219Z,14.10
2019-05-01T00:40:38.340Z,14.10
2019-05-01T00:43:07.410Z,14.10
2019-05-01T00:45:36.486Z,14.10
2019-05-01T00:48:05.598Z,14.10
2019-05-01T00:50:34.756Z,14.10
2019-05-01T00:53:03.927Z,14.10
2019-05-01T00:56:01.574Z,14.10
2019-05-01T00:58:48.672Z,14.00
2019-05-01T01:01:39.457Z,14.10
2019-05-01T01:04:10.689Z,14.00
2019-05-01T01:06:39.771Z,14.00
2019-05-01T01:09:08.979Z,14.10
2019-05-01T01:11:38.090Z,14.00
2019-05-01T01:14:08.071Z,14.00
2019-05-01T01:16:37.166Z,14.00
2019-05-01T01:19:06.327Z,14.00
2019-05-01T01:21:35.424Z,14.00
2019-05-01T01:24:04.534Z,14.00
2019-05-01T01:26:33.650Z,14.00
2019-05-01T01:29:02.746Z,14.10
2019-05-01T01:31:32.091Z,14.00
2019-05-01T01:34:01.177Z,14.00
2019-05-01T01:36:30.248Z,14.10
2019-05-01T01:38:59.568Z,14.10
2019-05-01T01:41:28.729Z,14.10
2019-05-01T01:44:16.967Z,14.10
2019-05-01T01:46:46.350Z,14.00
2019-05-01T01:49:15.722Z,14.00
2019-05-01T01:51:44.824Z,14.00
2019-05-01T01:54:14.133Z,13.90
2019-05-01T01:56:43.267Z,13.90
2019-05-01T01:59:12.978Z,13.90
2019-05-01T02:02:21.275Z,13.80
2019-05-01T02:05:00.977Z,13.80
2019-05-01T02:07:30.070Z,13.80
2019-05-01T02:09:59.256Z,13.70
2019-05-01T02:12:28.390Z,13.70
2019-05-01T02:14:57.503Z,13.70
2019-05-01T02:17:26.583Z,13.70
2019-05-01T02:19:55.674Z,13.80
2019-05-01T02:22:24.806Z,13.80
2019-05-01T02:24:53.985Z,13.80
2019-05-01T02:27:28.415Z,13.80
2019-05-01T02:29:59.871Z,13.80
2019-05-01T02:32:29.929Z,13.80
2019-05-01T02:35:00.676Z,13.80
2019-05-01T02:37:31.515Z,13.70
2019-05-01T02:40:03.773Z,13.70
2019-05-01T02:42:35.485Z,13.70
2019-05-01T02:45:05.848Z,13.60
2019-05-01T02:47:37.220Z,13.70
2019-05-01T02:50:08.760Z,13.70
2019-05-01T02:52:39.652Z,13.60
2019-05-01T02:55:25.132Z,13.60
2019-05-01T02:57:54.881Z,13.60
2019-05-01T03:00:24.149Z,13.70
2019-05-01T03:02:53.673Z,13.60
2019-05-01T03:05:22.846Z,13.70
2019-05-01T03:07:52.563Z,13.60
2019-05-01T03:10:22.160Z,13.70
2019-05-01T03:12:52.903Z,13.70
2019-05-01T03:15:24.217Z,13.70
2019-05-01T03:18:19.040Z,13.70
2019-05-01T03:21:16.399Z,13.70
2019-05-01T03:24:05.591Z,13.70
2019-05-01T03:26:35.779Z,13.60
2019-05-01T03:29:05.587Z,13.60
2019-05-01T03:31:34.797Z,13.60
2019-05-01T03:34:03.978Z,13.60
2019-05-01T03:36:33.364Z,13.60
2019-05-01T03:39:02.578Z,13.70
2019-05-01T03:41:31.786Z,13.60
2019-05-01T03:44:00.901Z,13.60
2019-05-01T03:46:30.086Z,13.60
2019-05-01T03:48:59.546Z,13.60
2019-05-01T03:51:28.613Z,13.60
2019-05-01T03:53:58.309Z,13.60
2019-05-01T03:56:28.820Z,13.60
2019-05-01T03:58:57.908Z,13.60
2019-05-01T04:01:45.191Z,13.60
2019-05-01T04:04:20.468Z,13.50
2019-05-01T04:06:49.572Z,13.60
2019-05-01T04:09:18.704Z,13.50
2019-05-01T04:11:48.157Z,13.50
2019-05-01T04:14:17.460Z,13.50
2019-05-01T04:16:49.383Z,13.50
2019-05-01T04:19:18.827Z,13.50
2019-05-01T04:22:04.011Z,13.50
2019-05-01T04:24:33.159Z,13.40
2019-05-01T04:27:03.464Z,13.50
2019-05-01T04:29:48.735Z,13.40
2019-05-01T04:32:26.893Z,13.40
2019-05-01T04:35:24.367Z,13.40
2019-05-01T04:37:55.405Z,13.30
2019-05-01T04:40:24.512Z,13.30
2019-05-01T04:42:53.762Z,13.30
2019-05-01T04:45:23.754Z,13.40
2019-05-01T04:47:53.931Z,13.40
2019-05-01T04:50:23.381Z,13.40
2019-05-01T04:52:53.083Z,13.20
2019-05-01T04:55:23.739Z,13.30
2019-05-01T04:57:53.095Z,13.30
2019-05-01T05:00:22.291Z,13.30
2019-05-01T05:03:05.382Z,13.40
2019-05-01T05:05:34.825Z,13.30
2019-05-01T05:08:04.248Z,13.30
2019-05-01T05:10:33.770Z,13.30
2019-05-01T05:13:26.043Z,13.30
2019-05-01T05:16:13.939Z,13.30
2019-05-01T05:18:43.332Z,13.30
2019-05-01T05:21:13.230Z,13.30
2019-05-01T05:23:42.891Z,13.30
2019-05-01T05:26:12.198Z,13.30
2019-05-01T05:28:42.817Z,13.40
2019-05-01T05:31:14.099Z,13.30
2019-05-01T05:33:45.468Z,13.40
2019-05-01T05:36:16.811Z,13.40
2019-05-01T05:39:01.323Z,13.50
2019-05-01T05:41:32.131Z,13.50
2019-05-01T05:44:01.709Z,13.50
2019-05-01T05:46:30.937Z,13.50
2019-05-01T05:49:00.118Z,13.50
2019-05-01T05:51:40.618Z,13.50
2019-05-01T05:54:30.781Z,13.60
2019-05-01T05:57:06.216Z,13.60
2019-05-01T05:59:39.819Z,13.60
2019-05-01T06:02:23.307Z,13.60
2019-05-01T06:05:05.863Z,13.60
2019-05-01T06:07:45.330Z,13.70
2019-05-01T06:10:38.118Z,13.70
2019-05-01T06:13:17.992Z,13.80
2019-05-01T06:15:54.861Z,13.80
2019-05-01T06:18:34.830Z,13.80
2019-05-01T06:21:16.124Z,13.80
2019-05-01T06:24:00.716Z,13.70
2019-05-01T06:26:31.907Z,13.80
2019-05-01T06:29:03.515Z,13.80
2019-05-01T06:31:33.554Z,13.80
2019-05-01T06:34:02.857Z,13.80
2019-05-01T06:36:33.269Z,13.80
2019-05-01T06:39:06.848Z,13.80
2019-05-01T06:41:43.479Z,13.80
2019-05-01T06:44:24.818Z,13.80
2019-05-01T06:47:05.086Z,13.90
2019-05-01T06:49:53.905Z,13.90
2019-05-01T06:52:24.848Z,13.90
2019-05-01T06:54:56.699Z,13.90
2019-05-01T06:57:27.111Z,13.90
2019-05-01T06:59:57.973Z,13.90
2019-05-01T07:02:29.778Z,14.00
2019-05-01T07:05:02.814Z,14.00
2019-05-01T07:07:33.036Z,14.00
2019-05-01T07:10:03.703Z,14.00
2019-05-01T07:12:33.529Z,14.00
2019-05-01T07:15:03.228Z,14.00
2019-05-01T07:17:32.647Z,14.00
2019-05-01T07:20:16.920Z,14.00
2019-05-01T07:22:44.797Z,14.00
2019-05-01T07:25:14.177Z,14.00
2019-05-01T07:27:43.276Z,14.00
2019-05-01T07:30:21.671Z,14.00
2019-05-01T07:32:50.991Z,14.00
2019-05-01T07:35:20.379Z,14.00
2019-05-01T07:37:49.622Z,14.00
2019-05-01T07:40:21.209Z,13.90
2019-05-01T07:42:53.989Z,14.00
2019-05-01T07:45:48.072Z,13.90
2019-05-01T07:48:20.314Z,13.80
2019-05-01T07:50:49.483Z,13.80
2019-05-01T07:53:18.615Z,13.90
2019-05-01T07:55:48.648Z,13.80
2019-05-01T07:58:18.154Z,13.90
2019-05-01T08:00:53.749Z,13.90
2019-05-01T08:03:22.827Z,13.90
2019-05-01T08:05:51.994Z,14.00
2019-05-01T08:08:21.126Z,14.10
2019-05-01T08:10:50.234Z,14.10
2019-05-01T08:13:19.407Z,14.10
2019-05-01T08:15:48.500Z,14.20
2019-05-01T08:18:29.297Z,14.20
2019-05-01T08:21:21.179Z,14.20
2019-05-01T08:23:51.541Z,14.30
2019-05-01T08:26:20.650Z,14.30
2019-05-01T08:29:08.140Z,14.30
2019-05-01T08:31:53.241Z,14.40
2019-05-01T08:34:25.335Z,14.40
2019-05-01T08:36:54.943Z,14.40
2019-05-01T08:39:24.040Z,14.50
2019-05-01T08:41:53.273Z,14.50
2019-05-01T08:44:24.792Z,14.60
2019-05-01T08:47:32.567Z,14.60
2019-05-01T08:50:13.717Z,14.70
2019-05-01T08:52:47.484Z,14.70
2019-05-01T08:55:13.747Z,14.80
2019-05-01T08:57:42.859Z,14.80
2019-05-01T09:00:12.495Z,14.80
2019-05-01T09:02:43.433Z,14.70
2019-05-01T09:05:27.861Z,14.70
2019-05-01T09:07:43.381Z,14.60
2019-05-01T09:10:16.998Z,14.60
2019-05-01T09:12:46.900Z,14.70
2019-05-01T09:15:14.806Z,14.70
2019-05-01T09:17:43.938Z,14.80
2019-05-01T09:20:13.199Z,14.90
2019-05-01T09:22:42.408Z,15.00
2019-05-01T09:25:13.151Z,15.00
2019-05-01T09:27:49.048Z,15.10
2019-05-01T09:30:26.817Z,15.20
2019-05-01T09:32:56.370Z,15.20
2019-05-01T09:35:25.461Z,15.20
2019-05-01T09:37:54.741Z,15.20
2019-05-01T09:40:23.935Z,15.30
2019-05-01T09:42:54.768Z,15.30
2019-05-01T09:45:23.922Z,15.30
2019-05-01T09:47:53.266Z,15.40
2019-05-01T09:50:25.745Z,15.30
2019-05-01T09:53:12.761Z,15.30
2019-05-01T09:55:49.086Z,15.30
2019-05-01T09:58:18.148Z,15.40
2019-05-01T10:00:48.777Z,15.30
2019-05-01T10:03:18.353Z,15.40
2019-05-01T10:05:47.598Z,15.40
2019-05-01T10:08:16.773Z,15.40
2019-05-01T10:10:46.009Z,15.40
2019-05-01T10:13:17.646Z,15.40
2019-05-01T10:15:46.000Z,15.20
2019-05-01T10:18:15.101Z,15.20
2019-05-01T10:20:44.198Z,15.20
2019-05-01T10:23:14.996Z,15.30
2019-05-01T10:25:49.757Z,15.40
2019-05-01T10:28:31.516Z,15.30
2019-05-01T10:31:31.964Z,15.40
2019-05-01T10:34:09.606Z,15.50
2019-05-01T10:36:49.747Z,15.50
2019-05-01T10:39:19.723Z,15.50
2019-05-01T10:41:47.934Z,15.60
2019-05-01T10:44:17.135Z,15.70
2019-05-01T10:46:46.213Z,15.70
2019-05-01T10:49:15.317Z,15.80
2019-05-01T10:51:44.431Z,15.60
2019-05-01T10:54:13.579Z,15.70
2019-05-01T10:56:42.740Z,15.70
2019-05-01T10:59:11.865Z,15.70
2019-05-01T11:02:00.018Z,15.80
2019-05-01T11:04:29.401Z,15.80
2019-05-01T11:06:58.625Z,15.90
2019-05-01T11:09:27.707Z,16.00
2019-05-01T11:11:56.925Z,16.10
2019-05-01T11:14:26.029Z,16.10
2019-05-01T11:16:55.141Z,16.10
2019-05-01T11:19:24.266Z,16.10
2019-05-01T11:21:53.379Z,16.20
2019-05-01T11:24:22.491Z,16.30
2019-05-01T11:26:51.599Z,16.20
2019-05-01T11:29:20.739Z,16.20
2019-05-01T11:32:08.920Z,16.00
2019-05-01T11:35:02.870Z,16.00
2019-05-01T11:37:57.221Z,15.70
2019-05-01T11:40:33.253Z,15.70
2019-05-01T11:43:02.841Z,15.80
2019-05-01T11:45:32.019Z,15.80
2019-05-01T11:48:01.118Z,15.80
2019-05-01T11:50:30.251Z,15.80
2019-05-01T11:52:59.363Z,15.90
2019-05-01T11:55:28.535Z,15.90
2019-05-01T11:57:57.776Z,15.90
2019-05-01T12:00:26.979Z,15.90
2019-05-01T12:02:56.191Z,15.90
2019-05-01T12:05:25.346Z,15.90
2019-05-01T12:07:54.475Z,15.80
2019-05-01T12:10:23.621Z,15.80
2019-05-01T12:12:52.774Z,15.70
2019-05-01T12:15:21.899Z,15.70
2019-05-01T12:17:51.363Z,15.70
2019-05-01T12:20:23.184Z,15.70
2019-05-01T12:22:52.367Z,15.70
2019-05-01T12:25:21.473Z,15.80
2019-05-01T12:27:50.701Z,15.90
2019-05-01T12:30:21.690Z,16.00
2019-05-01T12:32:50.787Z,15.80
2019-05-01T12:35:19.905Z,15.90
2019-05-01T12:37:49.648Z,15.90
2019-05-01T12:40:20.975Z,15.90
2019-05-01T12:42:50.072Z,15.80
2019-05-01T12:45:19.278Z,15.90
2019-05-01T12:47:50.957Z,15.90
2019-05-01T12:50:20.754Z,15.80
2019-05-01T12:53:10.769Z,15.70
2019-05-01T12:56:05.054Z,15.70
2019-05-01T12:58:36.169Z,15.70
2019-05-01T13:01:05.422Z,15.80
2019-05-01T13:03:34.699Z,15.80
2019-05-01T13:06:03.853Z,15.70
2019-05-01T13:08:32.911Z,15.50
2019-05-01T13:11:03.733Z,15.50
2019-05-01T13:13:32.886Z,15.50
2019-05-01T13:16:02.030Z,15.50
2019-05-01T13:18:31.104Z,15.50
2019-05-01T13:21:00.199Z,15.60
2019-05-01T13:23:29.352Z,15.60
2019-05-01T13:26:05.378Z,15.70
2019-05-01T13:28:55.729Z,15.70
2019-05-01T13:31:46.951Z,15.50
2019-05-01T13:34:16.044Z,15.60
2019-05-01T13:36:45.175Z,15.80
2019-05-01T13:39:14.612Z,15.90
2019-05-01T13:41:43.715Z,16.00
2019-05-01T13:44:13.160Z,16.10
2019-05-01T13:46:42.268Z,16.20
2019-05-01T13:49:11.372Z,16.20
2019-05-01T13:51:40.544Z,16.10
2019-05-01T13:54:10.044Z,16.20
2019-05-01T13:56:39.201Z,16.20
2019-05-01T13:59:11.080Z,16.00
2019-05-01T14:01:40.335Z,16.00
2019-05-01T14:04:10.320Z,16.10
2019-05-01T14:06:39.435Z,16.00
2019-05-01T14:09:11.395Z,15.90
2019-05-01T14:11:40.552Z,16.00
2019-05-01T14:14:09.667Z,16.00
2019-05-01T14:16:38.874Z,16.00
2019-05-01T14:19:07.993Z,16.00
2019-05-01T14:21:42.238Z,16.00
2019-05-01T14:24:19.261Z,16.00
2019-05-01T14:26:48.425Z,16.10
2019-05-01T14:29:17.545Z,15.80
2019-05-01T14:31:46.648Z,15.70
2019-05-01T14:34:15.831Z,15.70
2019-05-01T14:36:44.971Z,15.70
2019-05-01T14:39:14.102Z,15.80
2019-05-01T14:41:43.217Z,15.70
2019-05-01T14:44:12.340Z,15.80
2019-05-01T14:46:41.454Z,15.80
2019-05-01T14:49:10.614Z,15.90
2019-05-01T14:51:39.745Z,15.70
2019-05-01T14:54:09.088Z,15.70
2019-05-01T14:56:38.251Z,15.80
2019-05-01T14:59:07.498Z,15.80
2019-05-01T15:01:36.645Z,16.00
2019-05-01T15:04:05.850Z,16.00
2019-05-01T15:06:34.931Z,16.10
2019-05-01T15:09:07.154Z,16.00
2019-05-01T15:11:36.897Z,16.00
2019-05-01T15:14:37.168Z,16.00
2019-05-01T15:17:11.622Z,15.90
2019-05-01T15:19:44.613Z,16.00
2019-05-01T15:22:13.718Z,15.80
2019-05-01T15:24:42.839Z,15.90
2019-05-01T15:27:11.933Z,16.00
2019-05-01T15:29:41.057Z,16.00
2019-05-01T15:32:10.252Z,15.90
2019-05-01T15:34:39.352Z,15.90
2019-05-01T15:37:08.443Z,15.90
2019-05-01T15:39:42.863Z,15.80
2019-05-01T15:42:33.795Z,15.80
2019-05-01T15:45:03.291Z,15.70
2019-05-01T15:47:33.650Z,15.70
2019-05-01T15:50:02.952Z,15.70
2019-05-01T15:52:32.228Z,15.60
2019-05-01T15:55:01.326Z,15.60
2019-05-01T15:57:31.088Z,15.60
2019-05-01T16:00:00.362Z,15.70
2019-05-01T16:02:29.471Z,15.70
2019-05-01T16:04:58.596Z,15.80
2019-05-01T16:07:27.768Z,15.70
2019-05-01T16:09:57.004Z,15.80
2019-05-01T16:12:43.052Z,15.80
2019-05-01T16:15:18.287Z,15.80
2019-05-01T16:17:47.441Z,15.80
2019-05-01T16:20:17.030Z,15.90
2019-05-01T16:22:46.413Z,16.00
2019-05-01T16:25:15.666Z,16.40
2019-05-01T16:27:44.875Z,17.10
2019-05-01T16:30:15.643Z,17.90
2019-05-01T16:32:44.874Z,18.50
2019-05-01T16:35:14.038Z,19.00
2019-05-01T16:37:43.182Z,19.50
2019-05-01T16:40:46.773Z,19.80
2019-05-01T16:43:15.800Z,20.20
2019-05-01T16:45:45.123Z,20.50
2019-05-01T16:48:14.214Z,20.60
2019-05-01T16:50:43.390Z,20.80
2019-05-01T16:53:12.584Z,21.00
2019-05-01T16:55:41.815Z,21.20
2019-05-01T16:58:13.608Z,21.30
2019-05-01T17:01:00.441Z,21.30
2019-05-01T17:03:51.649Z,21.10
2019-05-01T17:06:32.133Z,20.90
2019-05-01T17:09:30.843Z,20.60
2019-05-01T17:12:00.037Z,20.60
2019-05-01T17:14:29.324Z,20.50
2019-05-01T17:16:58.516Z,20.40
2019-05-01T17:19:27.537Z,20.50
2019-05-01T17:21:56.669Z,20.40
2019-05-01T17:24:25.878Z,20.50
2019-05-01T17:26:54.973Z,20.60
2019-05-01T17:29:24.143Z,20.60
2019-05-01T17:31:53.308Z,20.70
2019-05-01T17:34:25.725Z,20.30
2019-05-01T17:36:53.356Z,20.00
2019-05-01T17:39:22.559Z,19.50
2019-05-01T17:41:51.635Z,19.20
2019-05-01T17:44:25.121Z,18.70
2019-05-01T17:46:51.644Z,18.30
2019-05-01T17:49:20.714Z,18.00
2019-05-01T17:51:49.843Z,17.60
2019-05-01T17:54:18.938Z,17.40
2019-05-01T17:56:48.459Z,17.20
2019-05-01T17:59:18.878Z,17.00
2019-05-01T18:02:11.352Z,16.90
2019-05-01T18:05:08.903Z,16.70
2019-05-01T18:07:37.913Z,16.40
2019-05-01T18:10:07.136Z,16.20
2019-05-01T18:12:36.343Z,16.00
2019-05-01T18:15:05.677Z,15.80
2019-05-01T18:17:34.837Z,15.70
2019-05-01T18:20:04.346Z,15.70
2019-05-01T18:22:45.847Z,15.50
2019-05-01T18:25:28.128Z,15.40
2019-05-01T18:28:07.389Z,15.40
2019-05-01T18:30:38.875Z,15.30
2019-05-01T18:33:08.094Z,15.20
2019-05-01T18:35:37.342Z,15.10
2019-05-01T18:38:24.692Z,15.00
2019-05-01T18:41:00.711Z,14.90
2019-05-01T18:43:32.258Z,14.80
2019-05-01T18:44:05.217Z,26.20
2019-05-01T18:46:04.047Z,14.70
2019-05-01T18:46:34.109Z,25.10
2019-05-01T18:48:33.217Z,14.70
2019-05-01T18:49:04.178Z,25.00
2019-05-01T18:51:02.355Z,14.60
2019-05-01T18:51:36.114Z,24.60
2019-05-01T18:53:31.543Z,14.50
2019-05-01T18:54:02.951Z,24.40
2019-05-01T18:56:01.323Z,14.50
2019-05-01T18:56:31.453Z,24.40
2019-05-01T18:58:31.481Z,14.50
2019-05-01T18:59:05.159Z,24.50
2019-05-01T19:01:04.065Z,14.50
2019-05-01T19:01:35.975Z,24.50
2019-05-01T19:03:31.568Z,14.50
2019-05-01T19:04:04.557Z,24.50
2019-05-01T19:06:00.675Z,14.40
2019-05-01T19:08:30.099Z,14.30
2019-05-01T19:11:11.723Z,14.20
2019-05-01T19:13:30.527Z,14.20
2019-05-01T19:16:03.460Z,14.10
2019-05-01T19:18:30.472Z,14.20
2019-05-01T19:21:00.095Z,14.10
2019-05-01T19:23:29.936Z,14.00
2019-05-01T19:26:04.942Z,14.00
2019-05-01T19:28:31.683Z,13.90
2019-05-01T19:31:01.074Z,13.90
2019-05-01T19:33:30.172Z,13.80
2019-05-01T19:36:02.715Z,13.80
2019-05-01T19:38:34.925Z,13.80
2019-05-01T19:41:03.517Z,13.70
2019-05-01T19:43:35.938Z,13.70
2019-05-01T19:46:02.662Z,13.70
2019-05-01T19:48:31.793Z,13.60
2019-05-01T19:51:00.990Z,13.60
2019-05-01T19:53:30.249Z,13.60
2019-05-01T19:55:59.352Z,13.60
2019-05-01T19:58:28.606Z,13.50
2019-05-01T20:01:04.931Z,13.50
2019-05-01T20:03:36.133Z,13.50
2019-05-01T20:06:07.664Z,13.50
2019-05-01T20:08:36.018Z,13.50
2019-05-01T20:11:05.460Z,13.50
2019-05-01T20:13:34.876Z,13.50
2019-05-01T20:16:08.033Z,13.40
2019-05-01T20:18:37.196Z,13.40
2019-05-01T20:21:06.813Z,13.40
2019-05-01T20:23:35.911Z,13.40
2019-05-01T20:26:05.120Z,13.40
2019-05-01T20:28:34.207Z,13.40
2019-05-01T20:31:03.328Z,13.40
2019-05-01T20:33:33.443Z,13.40
2019-05-01T20:36:05.299Z,13.30
2019-05-01T20:38:34.159Z,13.30
2019-05-01T20:41:03.316Z,13.30
2019-05-01T20:43:33.567Z,13.30
2019-05-01T20:46:02.927Z,13.20
2019-05-01T20:48:32.144Z,13.20
2019-05-01T20:51:01.351Z,13.20
2019-05-01T20:53:30.454Z,13.20
2019-05-01T20:56:15.992Z,13.10
2019-05-01T20:58:45.153Z,13.10
2019-05-01T21:01:14.269Z,13.10
2019-05-01T21:03:52.511Z,13.10
2019-05-01T21:06:23.425Z,13.00
2019-05-01T21:09:13.857Z,13.10
2019-05-01T21:11:47.341Z,13.00
2019-05-01T21:14:22.619Z,13.00
2019-05-01T21:16:48.048Z,13.00
2019-05-01T21:19:17.191Z,12.90
2019-05-01T21:21:46.471Z,12.90
2019-05-01T21:24:15.903Z,12.90
2019-05-01T21:26:45.007Z,12.90
2019-05-01T21:29:14.268Z,12.90
2019-05-01T21:31:44.047Z,12.80
2019-05-01T21:34:33.334Z,12.80
2019-05-01T21:37:02.660Z,12.80
2019-05-01T21:39:33.442Z,12.80
2019-05-01T21:42:04.778Z,12.80
2019-05-01T21:44:33.647Z,12.70
2019-05-01T21:47:03.923Z,12.70
2019-05-01T21:49:33.836Z,12.70
2019-05-01T21:52:03.623Z,12.70
2019-05-01T21:54:34.139Z,12.70
2019-05-01T21:57:03.293Z,12.70
2019-05-01T21:59:32.332Z,12.60
2019-05-01T22:02:05.521Z,12.60
2019-05-01T22:04:33.206Z,12.60
2019-05-01T22:07:02.493Z,12.60
2019-05-01T22:09:31.710Z,12.60
2019-05-01T22:12:00.832Z,12.50
2019-05-01T22:14:41.395Z,12.50
2019-05-01T22:17:18.423Z,12.50
2019-05-01T22:19:47.627Z,12.50
2019-05-01T22:22:38.714Z,12.50
2019-05-01T22:25:15.610Z,12.40
2019-05-01T22:27:48.594Z,12.40
2019-05-01T22:30:27.880Z,12.40
2019-05-01T22:32:57.369Z,12.40
2019-05-01T22:35:29.079Z,12.40
2019-05-01T22:37:58.242Z,12.30
2019-05-01T22:40:46.367Z,12.30
2019-05-01T22:43:15.650Z,12.30
2019-05-01T22:45:44.852Z,12.30
2019-05-01T22:48:14.011Z,12.30
2019-05-01T22:50:43.328Z,12.30
2019-05-01T22:53:13.084Z,12.20
2019-05-01T22:55:43.441Z,12.20
2019-05-01T22:58:12.447Z,12.20
2019-05-01T23:00:46.342Z,12.20
2019-05-01T23:03:20.607Z,12.20
2019-05-01T23:05:49.700Z,12.10
2019-05-01T23:08:18.823Z,12.10
2019-05-01T23:10:48.590Z,12.10
2019-05-01T23:13:17.917Z,12.10
2019-05-01T23:15:51.581Z,12.10
2019-05-01T23:18:17.926Z,12.10
2019-05-01T23:20:47.076Z,12.00
2019-05-01T23:23:16.152Z,12.00
2019-05-01T23:25:45.220Z,12.00
2019-05-01T23:28:14.343Z,12.00
2019-05-01T23:30:43.506Z,12.00
2019-05-01T23:33:12.576Z,12.00
2019-05-01T23:35:41.727Z,11.90
2019-05-01T23:38:10.850Z,11.90
2019-05-01T23:40:39.956Z,11.90
2019-05-01T23:43:09.164Z,11.90
2019-05-01T23:45:38.251Z,11.90
2019-05-01T23:48:07.327Z,11.90
2019-05-01T23:50:36.575Z,11.90
2019-05-01T23:53:09.182Z,11.90
2019-05-01T23:55:36.671Z,11.80
2019-05-01T23:58:05.851Z,11.80
